Mont Saint Michel — FNMT — position and weather

sailwx.info

Track history (hours):
 
Tides and Currents Weather Stations Pressure Air Temp Water Temp Dewpoint Dewpoint Depression Visibility Wind Speed Wind Dir Waves Ship Positions

Mont Saint Michel

Last reported at 2019-Apr-25 10:30 UTC. Time now 2019-Apr-25 10:39 UTC.
Position N 50°26' W 000°55'.

Length 173 m; beam 29 m.

Type: Ship. MMSI: 227023100.

Date/timePositionNaut miles runAvg speedWind from/ knotsBaromVisibWave heightAir tempDewpointWater temp
2019-Apr-25 10:30N 50°26' W 000°55'1019.1
2019-Apr-25 10:00N 50°17' W 000°50'1019.6
2019-Apr-25 09:30N 50°07' W 000°45'1121.1
2019-Apr-25 09:01N 49°58' W 000°39'1121.1
2019-Apr-25 08:30N 49°48' W 000°33'1121.4
2019-Apr-25 08:01N 49°38' W 000°26'1121.4
2019-Apr-25 07:31N 49°28' W 000°19'1019.9
2019-Apr-25 07:01N 49°19' W 000°15'2 3.3
2019-Apr-25 06:30N 49°17' W 000°15'0 0.0
2019-Apr-25 06:00N 49°17' W 000°15'0 0.0
2019-Apr-25 05:30N 49°17' W 000°15'0 0.0
2019-Apr-25 05:00N 49°17' W 000°15'0 0.2
2019-Apr-25 04:30N 49°17' W 000°15'713.1
2019-Apr-25 04:00N 49°24' W 000°17'611.0
2019-Apr-25 03:30N 49°29' W 000°20'510.2
2019-Apr-25 03:01N 49°33' W 000°23'510.4
2019-Apr-25 02:31N 49°38' W 000°26'510.7
2019-Apr-25 02:01N 49°43' W 000°29'510.8
2019-Apr-25 01:31N 49°48' W 000°32'713.0
2019-Apr-25 01:00N 49°55' W 000°35'714.8
2019-Apr-25 00:30N 50°02' W 000°39'715.0
2019-Apr-25 00:01N 50°09' W 000°43'714.8
2019-Apr-24 23:30N 50°16' W 000°45'714.8
2019-Apr-24 23:00N 50°23' W 000°49'815.1
2019-Apr-24 22:31N 50°30' W 000°53'815.1
2019-Apr-24 22:01N 50°37' W 000°57'713.1
2019-Apr-24 21:31N 50°43' W 001°01'612.2
2019-Apr-24 21:00N 50°48' W 001°07'1 1.8
2019-Apr-24 20:30N 50°49' W 001°06'0 0.0
2019-Apr-24 20:00N 50°49' W 001°06'0 0.0
2019-Apr-24 19:30N 50°49' W 001°06'0 0.0
2019-Apr-24 19:00N 50°49' W 001°06'0 0.0
2019-Apr-24 18:30N 50°49' W 001°06'1 1.7
2019-Apr-24 18:00N 50°48' W 001°07'611.7
2019-Apr-24 17:30N 50°43' W 001°02'815.9
2019-Apr-24 17:00N 50°36' W 000°57'917.3
2019-Apr-24 16:30N 50°28' W 000°51'816.9
2019-Apr-24 16:00N 50°20' W 000°46'816.5
2019-Apr-24 15:30N 50°12' W 000°45'917.1
2019-Apr-24 15:00N 50°04' W 000°40'816.9
2019-Apr-24 14:30N 49°56' W 000°35'816.7
2019-Apr-24 14:00N 49°49' W 000°31'816.7
2019-Apr-24 13:31N 49°41' W 000°27'918.2
2019-Apr-24 13:01N 49°32' W 000°22'918.7
2019-Apr-24 12:31N 49°24' W 000°16'612.5
2019-Apr-24 12:00N 49°17' W 000°15'0 0.0
2019-Apr-24 11:30N 49°17' W 000°15'0 0.0
2019-Apr-24 11:00N 49°17' W 000°15'0 0.0
2019-Apr-24 10:30N 49°17' W 000°15'0 0.0
2019-Apr-24 10:00N 49°17' W 000°15'0 0.0
2019-Apr-24 09:30N 49°17' W 000°15'0 0.0
2019-Apr-24 09:00N 49°17' W 000°15'0 0.0
2019-Apr-24 08:30N 49°17' W 000°15'0 0.0
2019-Apr-24 08:00N 49°17' W 000°15'0 0.0
2019-Apr-24 07:30N 49°17' W 000°15'0 0.0
2019-Apr-24 07:00N 49°17' W 000°15'0 0.0
2019-Apr-24 06:30N 49°17' W 000°15'0 0.0
2019-Apr-24 06:00N 49°17' W 000°15'0 0.0
2019-Apr-24 05:30N 49°17' W 000°15'3 6.2
2019-Apr-24 05:01N 49°20' W 000°14'714.7
2019-Apr-24 04:30N 49°28' W 000°18'510.5
2019-Apr-24 04:00N 49°32' W 000°22'510.7
2019-Apr-24 03:30N 49°37' W 000°25'511.0
2019-Apr-24 03:00N 49°42' W 000°28'611.7
2019-Apr-24 02:30N 49°48' W 000°29'815.4
2019-Apr-24 02:00N 49°55' W 000°33'815.7
2019-Apr-24 01:30N 50°03' W 000°37'815.8
2019-Apr-24 01:00N 50°10' W 000°42'815.7
2019-Apr-24 00:30N 50°17' W 000°46'815.6
2019-Apr-24 00:00N 50°24' W 000°51'815.5
2019-Apr-23 23:30N 50°32' W 000°55'815.3
2019-Apr-23 23:00N 50°39' W 000°58'713.4
2019-Apr-23 22:30N 50°44' W 001°05'4 8.7
2019-Apr-23 22:00N 50°49' W 001°06'0 0.0
2019-Apr-23 21:30N 50°49' W 001°06'0 0.0
2019-Apr-23 21:00N 50°49' W 001°06'0 0.0
2019-Apr-23 20:30N 50°49' W 001°06'1 2.3
2019-Apr-23 20:00N 50°48' W 001°07'713.6
2019-Apr-23 19:31N 50°43' W 000°59'816.7
2019-Apr-23 19:01N 50°35' W 000°53'1019.1
2019-Apr-23 18:30N 50°27' W 000°48'918.6
2019-Apr-23 18:01N 50°17' W 000°44'1019.1
2019-Apr-23 17:30N 50°08' W 000°41'1019.5
2019-Apr-23 17:01N 49°59' W 000°36'1019.7
2019-Apr-23 16:31N 49°50' W 000°32'1019.7
2019-Apr-23 16:01N 49°40' W 000°27'1019.5
2019-Apr-23 15:31N 49°31' W 000°20'1019.6
2019-Apr-23 15:01N 49°22' W 000°15'5 9.7
2019-Apr-23 14:30N 49°17' W 000°15'0 0.0
2019-Apr-23 14:00N 49°17' W 000°15'0 0.0
2019-Apr-23 13:30N 49°17' W 000°15'0 0.0
2019-Apr-23 13:00N 49°17' W 000°15'1 1.6
2019-Apr-23 12:30N 49°18' W 000°15'917.5
2019-Apr-23 12:00N 49°27' W 000°16'1019.6
2019-Apr-23 11:30N 49°36' W 000°23'1019.4
2019-Apr-23 11:00N 49°45' W 000°26'1020.4
2019-Apr-23 10:30N 49°54' W 000°33'1020.6
2019-Apr-23 10:00N 50°03' W 000°40'1020.2
2019-Apr-23 09:30N 50°13' W 000°46'1019.6
2019-Apr-23 09:00N 50°22' W 000°49'1019.5
2019-Apr-23 08:30N 50°32' W 000°55'918.4
2019-Apr-23 08:00N 50°40' W 000°59'714.9
2019-Apr-23 07:30N 50°46' W 001°06'2 4.7
2019-Apr-23 07:01N 50°49' W 001°06'0 0.0
2019-Apr-23 06:31N 50°49' W 001°06'0 0.0
2019-Apr-23 06:01N 50°49' W 001°06'0 0.2
2019-Apr-23 05:31N 50°49' W 001°06'4 7.7
2019-Apr-23 05:01N 50°45' W 001°05'714.6
2019-Apr-23 04:30N 50°39' W 000°59'815.8
2019-Apr-23 04:00N 50°32' W 000°53'816.0
2019-Apr-23 03:30N 50°24' W 000°48'714.6
2019-Apr-23 03:00N 50°18' W 000°44'612.1
2019-Apr-23 02:30N 50°12' W 000°40'611.9
2019-Apr-23 02:00N 50°06' W 000°37'611.7
2019-Apr-23 01:30N 50°01' W 000°33'611.2
2019-Apr-23 01:00N 49°56' W 000°31'611.2
2019-Apr-23 00:30N 49°50' W 000°28'611.1
2019-Apr-23 00:00N 49°45' W 000°25'511.0
2019-Apr-22 23:30N 49°40' W 000°21'611.3
2019-Apr-22 23:00N 49°35' W 000°18'510.9
2019-Apr-22 22:30N 49°30' W 000°18'510.7
2019-Apr-22 22:00N 49°25' W 000°15'510.5
2019-Apr-22 21:30N 49°19' W 000°15'2 4.2
2019-Apr-22 21:00N 49°17' W 000°15'0 0.0
2019-Apr-22 20:30N 49°17' W 000°15'0 0.0
2019-Apr-22 20:00N 49°17' W 000°15'0 0.0
2019-Apr-22 19:30N 49°17' W 000°15'3 5.8
2019-Apr-22 19:00N 49°20' W 000°14'1019.7
2019-Apr-22 18:30N 49°30' W 000°19'1020.5
2019-Apr-22 18:00N 49°39' W 000°24'1020.2
2019-Apr-22 17:30N 49°49' W 000°30'1020.4
2019-Apr-22 17:00N 49°58' W 000°35'1020.3
2019-Apr-22 16:30N 50°08' W 000°41'1020.2
2019-Apr-22 16:00N 50°17' W 000°47'1020.9
2019-Apr-22 15:31N 50°27' W 000°53'1020.4
2019-Apr-22 15:00N 50°36' W 000°58'918.0
2019-Apr-22 14:30N 50°44' W 001°05'4 8.8
2019-Apr-22 14:00N 50°49' W 001°06'0 0.2
2019-Apr-22 13:30N 50°49' W 001°06'0 0.0
2019-Apr-22 13:00N 50°49' W 001°06'0 0.2
2019-Apr-22 12:30N 50°49' W 001°06'3 7.0
2019-Apr-22 12:01N 50°45' W 001°05'1019.8
2019-Apr-22 11:30N 50°37' W 000°57'1020.4
2019-Apr-22 11:00N 50°27' W 000°51'1020.5
2019-Apr-22 10:30N 50°18' W 000°45'1020.3
2019-Apr-22 10:00N 50°08' W 000°40'1019.8
2019-Apr-22 09:30N 49°59' W 000°35'1019.6
2019-Apr-22 09:00N 49°49' W 000°31'1019.6
2019-Apr-22 08:30N 49°40' W 000°25'1019.7
2019-Apr-22 08:00N 49°31' W 000°20'1019.9
2019-Apr-22 07:30N 49°22' W 000°15'4 8.6
2019-Apr-22 07:00N 49°17' W 000°15'0 0.0
2019-Apr-22 06:30N 49°17' W 000°15'0 0.0
2019-Apr-22 06:00N 49°17' W 000°15'0 0.0
2019-Apr-22 05:30N 49°17' W 000°15'0 0.0
2019-Apr-22 05:00N 49°17' W 000°15'0 0.2
2019-Apr-22 04:30N 49°17' W 000°15'612.3
2019-Apr-22 04:01N 49°23' W 000°16'714.9
2019-Apr-22 03:30N 49°30' W 000°19'815.2
2019-Apr-22 03:00N 49°38' W 000°23'815.1
2019-Apr-22 02:31N 49°45' W 000°28'815.2
2019-Apr-22 02:01N 49°52' W 000°32'815.3
2019-Apr-22 01:31N 49°59' W 000°37'815.1
2019-Apr-22 01:01N 50°06' W 000°42'815.2
2019-Apr-22 00:31N 50°13' W 000°45'815.2
2019-Apr-22 00:01N 50°20' W 000°48'815.4
2019-Apr-21 23:31N 50°27' W 000°52'815.3
2019-Apr-21 23:01N 50°35' W 000°56'815.2
2019-Apr-21 22:31N 50°42' W 001°01'713.9
2019-Apr-21 22:00N 50°47' W 001°07'1 2.7
2019-Apr-21 21:30N 50°49' W 001°06'0 0.0
2019-Apr-21 21:00N 50°49' W 001°06'0 0.0
2019-Apr-21 20:30N 50°49' W 001°06'1 1.2
2019-Apr-21 20:01N 50°48' W 001°07'612.6
2019-Apr-21 19:30N 50°43' W 001°01'917.3
2019-Apr-21 19:00N 50°35' W 000°57'1019.6
2019-Apr-21 18:30N 50°26' W 000°53'1019.6
2019-Apr-21 18:00N 50°16' W 000°47'1019.7
2019-Apr-21 17:30N 50°07' W 000°42'1020.0
2019-Apr-21 17:00N 49°58' W 000°37'1020.1
2019-Apr-21 16:30N 49°48' W 000°31'1020.2
2019-Apr-21 16:00N 49°39' W 000°26'1020.0
2019-Apr-21 15:30N 49°30' W 000°20'1019.7
2019-Apr-21 15:00N 49°20' W 000°15'3 6.2
2019-Apr-21 14:30N 49°17' W 000°15'0 0.0
2019-Apr-21 14:00N 49°17' W 000°15'0 0.0
2019-Apr-21 13:30N 49°17' W 000°15'0 0.0
2019-Apr-21 13:00N 49°17' W 000°15'3 6.9
2019-Apr-21 12:30N 49°21' W 000°14'917.1
2019-Apr-21 12:00N 49°29' W 000°15'917.2
2019-Apr-21 11:30N 49°37' W 000°21'918.7
2019-Apr-21 11:00N 49°45' W 000°28'1019.8
2019-Apr-21 10:30N 49°54' W 000°34'1019.9
2019-Apr-21 10:00N 50°04' W 000°39'1019.5
2019-Apr-21 09:30N 50°13' W 000°44'1019.5
2019-Apr-21 09:00N 50°22' W 000°50'917.0
2019-Apr-21 08:30N 50°30' W 000°53'1019.3
2019-Apr-21 08:00N 50°39' W 000°57'816.5
2019-Apr-21 07:30N 50°46' W 001°05'3 5.9
2019-Apr-21 07:00N 50°49' W 001°06'0 0.0
2019-Apr-21 06:30N 50°49' W 001°06'0 0.0
2019-Apr-21 06:00N 50°49' W 001°06'0 0.2
2019-Apr-21 05:31N 50°49' W 001°06'510.0
2019-Apr-21 05:00N 50°44' W 001°03'612.6
2019-Apr-21 04:31N 50°39' W 000°58'612.9
2019-Apr-21 04:00N 50°32' W 000°55'611.2
2019-Apr-21 03:30N 50°27' W 000°52'510.7
2019-Apr-21 03:00N 50°22' W 000°49'511.0
2019-Apr-21 02:30N 50°17' W 000°46'611.5
2019-Apr-21 02:00N 50°12' W 000°43'611.7
2019-Apr-21 01:30N 50°06' W 000°39'611.8
2019-Apr-21 01:00N 50°01' W 000°34'611.6
2019-Apr-21 00:30N 49°56' W 000°32'611.5
2019-Apr-21 00:00N 49°50' W 000°29'611.3
2019-Apr-20 23:30N 49°45' W 000°26'611.2
2019-Apr-20 23:00N 49°40' W 000°23'611.3
2019-Apr-20 22:30N 49°34' W 000°21'611.3
2019-Apr-20 22:00N 49°29' W 000°19'611.2
2019-Apr-20 21:30N 49°23' W 000°16'611.2
2019-Apr-20 21:00N 49°18' W 000°15'0 0.9
2019-Apr-20 20:30N 49°17' W 000°15'0 0.0
2019-Apr-20 20:00N 49°17' W 000°15'0 0.0
2019-Apr-20 19:30N 49°17' W 000°15'3 5.7
2019-Apr-20 19:01N 49°20' W 000°14'816.9
2019-Apr-20 18:31N 49°28' W 000°19'816.9
2019-Apr-20 18:01N 49°36' W 000°23'917.0
2019-Apr-20 17:31N 49°44' W 000°28'918.2
2019-Apr-20 17:01N 49°52' W 000°33'918.5
2019-Apr-20 16:31N 50°01' W 000°39'918.4
2019-Apr-20 16:01N 50°10' W 000°44'918.6
2019-Apr-20 15:31N 50°19' W 000°48'1019.7
2019-Apr-20 15:01N 50°28' W 000°53'1020.3
2019-Apr-20 14:31N 50°37' W 000°58'918.7
2019-Apr-20 14:01N 50°46' W 001°05'3 6.0
2019-Apr-20 13:30N 50°49' W 001°06'0 0.0
2019-Apr-20 13:00N 50°49' W 001°06'0 0.0
2019-Apr-20 12:30N 50°49' W 001°06'0 0.2
2019-Apr-20 12:01N 50°49' W 001°06'5 9.8
2019-Apr-20 11:30N 50°44' W 001°03'816.1
2019-Apr-20 11:00N 50°37' W 000°58'917.9
2019-Apr-20 10:30N 50°29' W 000°52'1020.7
2019-Apr-20 10:00N 50°19' W 000°46'918.6
2019-Apr-20 09:30N 50°10' W 000°41'918.3
2019-Apr-20 09:00N 50°02' W 000°37'918.7
2019-Apr-20 08:30N 49°53' W 000°32'1019.6
2019-Apr-20 08:00N 49°44' W 000°27'1019.6
2019-Apr-20 07:30N 49°34' W 000°23'1019.3
2019-Apr-20 07:00N 49°25' W 000°17'815.2
2019-Apr-20 06:31N 49°18' W 000°15'0 0.9
2019-Apr-20 06:00N 49°17' W 000°15'0 0.0
2019-Apr-20 05:30N 49°17' W 000°15'0 0.0
2019-Apr-20 05:01N 49°17' W 000°15'1 1.6
2019-Apr-20 04:31N 49°18' W 000°15'816.1
2019-Apr-20 04:01N 49°26' W 000°17'1020.1
2019-Apr-20 03:31N 49°36' W 000°22'612.2
2019-Apr-20 03:00N 49°41' W 000°25'510.5
2019-Apr-20 02:30N 49°46' W 000°28'510.4
2019-Apr-20 02:00N 49°51' W 000°30'713.7
2019-Apr-20 01:30N 49°57' W 000°35'815.4
2019-Apr-20 01:00N 50°05' W 000°39'815.6
2019-Apr-20 00:30N 50°12' W 000°43'815.6
2019-Apr-20 00:00N 50°20' W 000°46'816.1
2019-Apr-19 23:30N 50°27' W 000°51'816.3
2019-Apr-19 23:00N 50°35' W 000°56'815.9
2019-Apr-19 22:30N 50°42' W 001°01'713.4
2019-Apr-19 22:00N 50°47' W 001°07'1 2.7
2019-Apr-19 21:31N 50°49' W 001°06'0 0.0
2019-Apr-19 21:00N 50°49' W 001°06'0 0.0
2019-Apr-19 20:31N 50°49' W 001°06'0 0.5
2019-Apr-19 20:01N 50°49' W 001°06'510.0
2019-Apr-19 19:30N 50°44' W 001°03'918.0
2019-Apr-19 19:00N 50°37' W 000°54'1019.5
2019-Apr-19 18:30N 50°28' W 000°47'1020.3
2019-Apr-19 18:00N 50°19' W 000°44'1020.5
2019-Apr-19 17:30N 50°09' W 000°41'1020.6
2019-Apr-19 17:00N 49°59' W 000°35'1020.7
2019-Apr-19 16:30N 49°49' W 000°30'1121.1
2019-Apr-19 16:00N 49°39' W 000°24'1020.3
2019-Apr-19 15:30N 49°30' W 000°20'1019.8
2019-Apr-19 15:00N 49°20' W 000°14'3 5.9
2019-Apr-19 14:30N 49°17' W 000°15'0 0.0
2019-Apr-19 14:00N 49°17' W 000°15'0 0.0
2019-Apr-19 13:30N 49°17' W 000°15'0 0.0
2019-Apr-19 13:00N 49°17' W 000°15'4 7.9
2019-Apr-19 12:30N 49°21' W 000°14'917.9
2019-Apr-19 12:00N 49°29' W 000°22'1019.1
2019-Apr-19 11:30N 49°38' W 000°23'1019.6
2019-Apr-19 11:00N 49°48' W 000°28'1019.9
2019-Apr-19 10:30N 49°57' W 000°33'1020.1
2019-Apr-19 10:00N 50°07' W 000°38'1020.0
2019-Apr-19 09:30N 50°16' W 000°43'1019.4
2019-Apr-19 09:00N 50°25' W 000°49'1019.5
2019-Apr-19 08:30N 50°34' W 000°54'918.0
2019-Apr-19 08:00N 50°42' W 000°59'714.8
2019-Apr-19 07:30N 50°48' W 001°07'1 1.7
2019-Apr-19 07:00N 50°49' W 001°06'0 0.0
2019-Apr-19 06:30N 50°49' W 001°06'0 0.0
2019-Apr-19 06:01N 50°49' W 001°06'0 0.2
2019-Apr-19 05:30N 50°49' W 001°06'4 7.8
2019-Apr-19 05:01N 50°45' W 001°05'714.3
2019-Apr-19 04:31N 50°39' W 000°57'815.5
2019-Apr-19 04:01N 50°32' W 000°53'815.5
2019-Apr-19 03:31N 50°25' W 000°47'815.7
2019-Apr-19 03:01N 50°18' W 000°42'815.9
2019-Apr-19 02:31N 50°11' W 000°39'816.1
2019-Apr-19 02:01N 50°03' W 000°36'713.5
2019-Apr-19 01:30N 49°56' W 000°35'612.3
2019-Apr-19 01:00N 49°50' W 000°32'612.3
2019-Apr-19 00:30N 49°44' W 000°29'612.2
2019-Apr-19 00:00N 49°38' W 000°27'612.3
2019-Apr-18 23:30N 49°33' W 000°23'611.5
2019-Apr-18 23:00N 49°27' W 000°21'611.7
2019-Apr-18 22:30N 49°22' W 000°16'510.2
2019-Apr-18 22:00N 49°17' W 000°15'0 0.0
2019-Apr-18 21:30N 49°17' W 000°15'0 0.0
2019-Apr-18 21:00N 49°17' W 000°15'0 0.0
2019-Apr-18 20:30N 49°17' W 000°15'0 0.0
2019-Apr-18 20:00N 49°17' W 000°15'0 0.0
2019-Apr-18 19:30N 49°17' W 000°15'3 5.4
2019-Apr-18 19:00N 49°20' W 000°14'816.8
2019-Apr-18 18:31N 49°28' W 000°19'917.4
2019-Apr-18 18:00N 49°36' W 000°25'917.4
2019-Apr-18 17:31N 49°44' W 000°30'918.6
2019-Apr-18 17:00N 49°52' W 000°36'1019.8
2019-Apr-18 16:30N 50°01' W 000°42'1019.2
2019-Apr-18 16:00N 50°10' W 000°48'1019.4
2019-Apr-18 15:30N 50°20' W 000°52'1019.6
2019-Apr-18 15:00N 50°29' W 000°55'1019.0
2019-Apr-18 14:30N 50°39' W 000°58'917.2
2019-Apr-18 14:00N 50°46' W 001°05'3 6.2
2019-Apr-18 13:30N 50°49' W 001°06'0 0.0
2019-Apr-18 13:00N 50°49' W 001°06'0 0.0
2019-Apr-18 12:30N 50°49' W 001°06'0 0.5
2019-Apr-18 12:01N 50°49' W 001°06'612.3
2019-Apr-18 11:31N 50°43' W 001°03'1019.0
2019-Apr-18 11:01N 50°35' W 000°56'1019.5
2019-Apr-18 10:31N 50°26' W 000°49'1019.2
2019-Apr-18 10:01N 50°17' W 000°44'1019.0
2019-Apr-18 09:30N 50°07' W 000°41'918.7
2019-Apr-18 09:00N 49°58' W 000°38'918.5
2019-Apr-18 08:31N 49°50' W 000°33'918.1
2019-Apr-18 08:01N 49°41' W 000°28'918.6
2019-Apr-18 07:31N 49°33' W 000°23'918.4
2019-Apr-18 07:01N 49°24' W 000°17'714.0
2019-Apr-18 06:30N 49°17' W 000°15'0 0.0
2019-Apr-18 06:00N 49°17' W 000°15'0 0.0
2019-Apr-18 05:30N 49°17' W 000°15'0 0.0
2019-Apr-18 05:00N 49°17' W 000°15'0 0.2
2019-Apr-18 04:30N 49°17' W 000°15'713.5
2019-Apr-18 04:00N 49°24' W 000°16'816.0
2019-Apr-18 03:30N 49°31' W 000°22'816.2
2019-Apr-18 03:00N 49°38' W 000°27'611.9
2019-Apr-18 02:30N 49°44' W 000°31'611.2
2019-Apr-18 02:00N 49°49' W 000°34'510.9
2019-Apr-18 01:30N 49°54' W 000°36'510.7
2019-Apr-18 01:00N 49°60' W 000°39'510.8
2019-Apr-18 00:30N 50°05' W 000°41'612.1
2019-Apr-18 00:00N 50°11' W 000°43'815.1
2019-Apr-17 23:30N 50°18' W 000°46'815.5
2019-Apr-17 23:00N 50°25' W 000°50'815.3
2019-Apr-17 22:30N 50°32' W 000°54'815.6
2019-Apr-17 22:00N 50°40' W 000°59'714.5
2019-Apr-17 21:30N 50°46' W 001°05'3 5.9
2019-Apr-17 21:00N 50°49' W 001°06'0 0.0
2019-Apr-17 20:30N 50°49' W 001°06'0 0.0
2019-Apr-17 20:01N 50°49' W 001°06'0 0.0
2019-Apr-17 19:30N 50°49' W 001°06'0 0.0
2019-Apr-17 19:00N 50°49' W 001°06'0 0.0
2019-Apr-17 18:30N 50°49' W 001°06'0 0.3
2019-Apr-17 18:00N 50°49' W 001°06'5 9.3
2019-Apr-17 17:31N 50°44' W 001°04'714.8
2019-Apr-17 17:00N 50°38' W 000°58'918.6
2019-Apr-17 16:30N 50°29' W 000°56'918.4
2019-Apr-17 16:00N 50°20' W 000°52'918.6
2019-Apr-17 15:30N 50°11' W 000°47'918.9
2019-Apr-17 15:00N 50°02' W 000°42'1019.2
2019-Apr-17 14:30N 49°54' W 000°36'1019.2
2019-Apr-17 14:00N 49°45' W 000°30'919.0
2019-Apr-17 13:30N 49°36' W 000°23'918.7
2019-Apr-17 13:00N 49°27' W 000°19'917.4
2019-Apr-17 12:30N 49°19' W 000°15'2 3.5
2019-Apr-17 12:00N 49°17' W 000°15'0 0.0
2019-Apr-17 11:30N 49°17' W 000°15'0 0.0
2019-Apr-17 11:00N 49°17' W 000°15'0 0.0
2019-Apr-17 10:30N 49°17' W 000°15'0 0.0
2019-Apr-17 10:00N 49°17' W 000°15'0 0.0
2019-Apr-17 09:30N 49°17' W 000°15'0 0.0
2019-Apr-17 09:00N 49°17' W 000°15'0 0.0
2019-Apr-17 08:30N 49°17' W 000°15'0 0.0
2019-Apr-17 08:00N 49°17' W 000°15'0 0.0
2019-Apr-17 07:30N 49°17' W 000°15'0 0.0
2019-Apr-17 07:00N 49°17' W 000°15'0 0.0
2019-Apr-17 06:30N 49°17' W 000°15'0 0.0
2019-Apr-17 06:00N 49°17' W 000°15'0 0.0
2019-Apr-17 05:30N 49°17' W 000°15'0 0.0
2019-Apr-17 05:00N 49°17' W 000°15'3 5.5
2019-Apr-17 04:30N 49°20' W 000°14'611.9
2019-Apr-17 04:00N 49°26' W 000°17'611.2
2019-Apr-17 03:30N 49°31' W 000°20'714.3
2019-Apr-17 03:00N 49°38' W 000°24'816.1
2019-Apr-17 02:30N 49°45' W 000°28'815.9
2019-Apr-17 02:00N 49°53' W 000°32'815.6
2019-Apr-17 01:30N 50°00' W 000°36'815.5
2019-Apr-17 01:00N 50°07' W 000°41'815.6
2019-Apr-17 00:30N 50°15' W 000°45'815.4
2019-Apr-17 00:00N 50°22' W 000°49'815.1
2019-Apr-16 23:30N 50°29' W 000°53'714.7
2019-Apr-16 23:00N 50°36' W 000°57'714.4
2019-Apr-16 22:30N 50°42' W 001°02'612.6
2019-Apr-16 22:00N 50°48' W 001°07'1 2.0
2019-Apr-16 21:30N 50°49' W 001°06'0 0.0
2019-Apr-16 21:00N 50°49' W 001°06'0 0.0
2019-Apr-16 20:30N 50°49' W 001°06'1 1.0
2019-Apr-16 20:00N 50°49' W 001°07'612.0
2019-Apr-16 19:31N 50°43' W 001°02'1019.8
2019-Apr-16 19:00N 50°35' W 000°55'1020.0
2019-Apr-16 18:30N 50°26' W 000°47'1020.6
2019-Apr-16 18:01N 50°16' W 000°42'1020.2
2019-Apr-16 17:31N 50°06' W 000°37'1020.1
2019-Apr-16 17:00N 49°57' W 000°33'1019.9
2019-Apr-16 16:31N 49°47' W 000°28'1019.9
2019-Apr-16 16:01N 49°38' W 000°24'1019.8
2019-Apr-16 15:30N 49°28' W 000°19'917.9
2019-Apr-16 15:00N 49°20' W 000°14'2 5.0
2019-Apr-16 14:30N 49°17' W 000°15'0 0.0
2019-Apr-16 14:00N 49°17' W 000°15'0 0.0
2019-Apr-16 13:30N 49°17' W 000°15'0 0.0
2019-Apr-16 13:00N 49°17' W 000°15'3 5.9
2019-Apr-16 12:30N 49°20' W 000°14'918.2
2019-Apr-16 12:01N 49°29' W 000°17'1019.4
2019-Apr-16 11:31N 49°37' W 000°25'1019.8
2019-Apr-16 11:01N 49°46' W 000°33'1019.7
2019-Apr-16 10:31N 49°55' W 000°39'918.8
2019-Apr-16 10:01N 50°04' W 000°44'918.4
2019-Apr-16 09:30N 50°12' W 000°49'1019.0
2019-Apr-16 09:00N 50°22' W 000°53'1020.2
2019-Apr-16 08:30N 50°32' W 000°55'1019.8
2019-Apr-16 08:01N 50°41' W 001°01'815.6
2019-Apr-16 07:30N 50°48' W 001°07'1 2.3
2019-Apr-16 07:00N 50°49' W 001°06'0 0.0
2019-Apr-16 06:30N 50°49' W 001°06'0 0.0
2019-Apr-16 06:00N 50°49' W 001°06'0 0.8
2019-Apr-16 05:30N 50°49' W 001°06'510.9
2019-Apr-16 05:00N 50°44' W 001°03'713.9
2019-Apr-16 04:30N 50°37' W 000°58'815.6
2019-Apr-16 04:00N 50°30' W 000°54'611.5
2019-Apr-16 03:30N 50°25' W 000°52'611.3
2019-Apr-16 03:00N 50°19' W 000°50'611.4
2019-Apr-16 02:30N 50°13' W 000°48'611.5
2019-Apr-16 02:00N 50°08' W 000°45'611.7
2019-Apr-16 01:30N 50°03' W 000°42'612.1
2019-Apr-16 01:00N 49°57' W 000°37'611.9
2019-Apr-16 00:30N 49°52' W 000°33'611.9
2019-Apr-16 00:00N 49°46' W 000°30'612.0
2019-Apr-15 23:30N 49°41' W 000°26'611.6
2019-Apr-15 23:00N 49°35' W 000°23'611.6
2019-Apr-15 22:30N 49°30' W 000°20'611.9
2019-Apr-15 22:00N 49°24' W 000°17'611.3
2019-Apr-15 21:30N 49°19' W 000°15'2 3.3
2019-Apr-15 21:00N 49°17' W 000°15'0 0.0
2019-Apr-15 20:30N 49°17' W 000°15'0 0.0
2019-Apr-15 20:00N 49°17' W 000°15'0 0.0
2019-Apr-15 19:30N 49°17' W 000°15'3 5.9
2019-Apr-15 19:00N 49°20' W 000°14'918.8
2019-Apr-15 18:30N 49°29' W 000°17'918.7
2019-Apr-15 18:00N 49°38' W 000°23'918.8
2019-Apr-15 17:30N 49°47' W 000°28'919.0
2019-Apr-15 17:00N 49°56' W 000°32'1019.2
2019-Apr-15 16:30N 50°05' W 000°37'1021.0
2019-Apr-15 16:00N 50°15' W 000°44'1020.6
2019-Apr-15 15:30N 50°24' W 000°50'1020.5
2019-Apr-15 15:00N 50°34' W 000°56'918.9
2019-Apr-15 14:30N 50°43' W 000°60'714.1
2019-Apr-15 14:00N 50°48' W 001°07'1 1.4
2019-Apr-15 13:30N 50°49' W 001°06'0 0.0
2019-Apr-15 13:00N 50°49' W 001°06'0 0.0
2019-Apr-15 12:30N 50°49' W 001°06'1 1.5
2019-Apr-15 12:01N 50°48' W 001°07'612.9
2019-Apr-15 11:30N 50°43' W 001°01'917.9
2019-Apr-15 11:00N 50°35' W 000°56'1121.3
2019-Apr-15 10:30N 50°25' W 000°49'  
Track history (hours):
 
Tides and Currents Weather Stations Pressure Air Temp Water Temp Dewpoint Dewpoint Depression Visibility Wind Speed Wind Dir Waves Ship Positions

Mont Saint Michel

Last reported at 2019-Apr-25 10:30 UTC. Time now 2019-Apr-25 10:39 UTC.
Position N 50°26' W 000°55'.

Length 173 m; beam 29 m.

Type: Ship. MMSI: 227023100.

Date/timePositionNaut miles runAvg speedWind from/ knotsBaromVisibWave heightAir tempDewpointWater temp
2019-Apr-25 10:30N 50°26' W 000°55'1019.1
2019-Apr-25 10:00N 50°17' W 000°50'1019.6
2019-Apr-25 09:30N 50°07' W 000°45'1121.1
2019-Apr-25 09:01N 49°58' W 000°39'1121.1
2019-Apr-25 08:30N 49°48' W 000°33'1121.4
2019-Apr-25 08:01N 49°38' W 000°26'1121.4
2019-Apr-25 07:31N 49°28' W 000°19'1019.9
2019-Apr-25 07:01N 49°19' W 000°15'2 3.3
2019-Apr-25 06:30N 49°17' W 000°15'0 0.0
2019-Apr-25 06:00N 49°17' W 000°15'0 0.0
2019-Apr-25 05:30N 49°17' W 000°15'0 0.0
2019-Apr-25 05:00N 49°17' W 000°15'0 0.2
2019-Apr-25 04:30N 49°17' W 000°15'713.1
2019-Apr-25 04:00N 49°24' W 000°17'611.0
2019-Apr-25 03:30N 49°29' W 000°20'510.2
2019-Apr-25 03:01N 49°33' W 000°23'510.4
2019-Apr-25 02:31N 49°38' W 000°26'510.7
2019-Apr-25 02:01N 49°43' W 000°29'510.8
2019-Apr-25 01:31N 49°48' W 000°32'713.0
2019-Apr-25 01:00N 49°55' W 000°35'714.8
2019-Apr-25 00:30N 50°02' W 000°39'715.0
2019-Apr-25 00:01N 50°09' W 000°43'714.8
2019-Apr-24 23:30N 50°16' W 000°45'714.8
2019-Apr-24 23:00N 50°23' W 000°49'815.1
2019-Apr-24 22:31N 50°30' W 000°53'815.1
2019-Apr-24 22:01N 50°37' W 000°57'713.1
2019-Apr-24 21:31N 50°43' W 001°01'612.2
2019-Apr-24 21:00N 50°48' W 001°07'1 1.8
2019-Apr-24 20:30N 50°49' W 001°06'0 0.0
2019-Apr-24 20:00N 50°49' W 001°06'0 0.0
2019-Apr-24 19:30N 50°49' W 001°06'0 0.0
2019-Apr-24 19:00N 50°49' W 001°06'0 0.0
2019-Apr-24 18:30N 50°49' W 001°06'1 1.7
2019-Apr-24 18:00N 50°48' W 001°07'611.7
2019-Apr-24 17:30N 50°43' W 001°02'815.9
2019-Apr-24 17:00N 50°36' W 000°57'917.3
2019-Apr-24 16:30N 50°28' W 000°51'816.9
2019-Apr-24 16:00N 50°20' W 000°46'816.5
2019-Apr-24 15:30N 50°12' W 000°45'917.1
2019-Apr-24 15:00N 50°04' W 000°40'816.9
2019-Apr-24 14:30N 49°56' W 000°35'816.7
2019-Apr-24 14:00N 49°49' W 000°31'816.7
2019-Apr-24 13:31N 49°41' W 000°27'918.2
2019-Apr-24 13:01N 49°32' W 000°22'918.7
2019-Apr-24 12:31N 49°24' W 000°16'612.5
2019-Apr-24 12:00N 49°17' W 000°15'0 0.0
2019-Apr-24 11:30N 49°17' W 000°15'0 0.0
2019-Apr-24 11:00N 49°17' W 000°15'0 0.0
2019-Apr-24 10:30N 49°17' W 000°15'0 0.0
2019-Apr-24 10:00N 49°17' W 000°15'0 0.0
2019-Apr-24 09:30N 49°17' W 000°15'0 0.0
2019-Apr-24 09:00N 49°17' W 000°15'0 0.0
2019-Apr-24 08:30N 49°17' W 000°15'0 0.0
2019-Apr-24 08:00N 49°17' W 000°15'0 0.0
2019-Apr-24 07:30N 49°17' W 000°15'0 0.0
2019-Apr-24 07:00N 49°17' W 000°15'0 0.0
2019-Apr-24 06:30N 49°17' W 000°15'0 0.0
2019-Apr-24 06:00N 49°17' W 000°15'0 0.0
2019-Apr-24 05:30N 49°17' W 000°15'3 6.2
2019-Apr-24 05:01N 49°20' W 000°14'714.7
2019-Apr-24 04:30N 49°28' W 000°18'510.5
2019-Apr-24 04:00N 49°32' W 000°22'510.7
2019-Apr-24 03:30N 49°37' W 000°25'511.0
2019-Apr-24 03:00N 49°42' W 000°28'611.7
2019-Apr-24 02:30N 49°48' W 000°29'815.4
2019-Apr-24 02:00N 49°55' W 000°33'815.7
2019-Apr-24 01:30N 50°03' W 000°37'815.8
2019-Apr-24 01:00N 50°10' W 000°42'815.7
2019-Apr-24 00:30N 50°17' W 000°46'815.6
2019-Apr-24 00:00N 50°24' W 000°51'815.5
2019-Apr-23 23:30N 50°32' W 000°55'815.3
2019-Apr-23 23:00N 50°39' W 000°58'713.4
2019-Apr-23 22:30N 50°44' W 001°05'4 8.7
2019-Apr-23 22:00N 50°49' W 001°06'0 0.0
2019-Apr-23 21:30N 50°49' W 001°06'0 0.0
2019-Apr-23 21:00N 50°49' W 001°06'0 0.0
2019-Apr-23 20:30N 50°49' W 001°06'1 2.3
2019-Apr-23 20:00N 50°48' W 001°07'713.6
2019-Apr-23 19:31N 50°43' W 000°59'816.7
2019-Apr-23 19:01N 50°35' W 000°53'1019.1
2019-Apr-23 18:30N 50°27' W 000°48'918.6
2019-Apr-23 18:01N 50°17' W 000°44'1019.1
2019-Apr-23 17:30N 50°08' W 000°41'1019.5
2019-Apr-23 17:01N 49°59' W 000°36'1019.7
2019-Apr-23 16:31N 49°50' W 000°32'1019.7
2019-Apr-23 16:01N 49°40' W 000°27'1019.5
2019-Apr-23 15:31N 49°31' W 000°20'1019.6
2019-Apr-23 15:01N 49°22' W 000°15'5 9.7
2019-Apr-23 14:30N 49°17' W 000°15'0 0.0
2019-Apr-23 14:00N 49°17' W 000°15'0 0.0
2019-Apr-23 13:30N 49°17' W 000°15'0 0.0
2019-Apr-23 13:00N 49°17' W 000°15'1 1.6
2019-Apr-23 12:30N 49°18' W 000°15'917.5
2019-Apr-23 12:00N 49°27' W 000°16'1019.6
2019-Apr-23 11:30N 49°36' W 000°23'1019.4
2019-Apr-23 11:00N 49°45' W 000°26'1020.4
2019-Apr-23 10:30N 49°54' W 000°33'1020.6
2019-Apr-23 10:00N 50°03' W 000°40'1020.2
2019-Apr-23 09:30N 50°13' W 000°46'1019.6
2019-Apr-23 09:00N 50°22' W 000°49'1019.5
2019-Apr-23 08:30N 50°32' W 000°55'918.4
2019-Apr-23 08:00N 50°40' W 000°59'714.9
2019-Apr-23 07:30N 50°46' W 001°06'2 4.7
2019-Apr-23 07:01N 50°49' W 001°06'0 0.0
2019-Apr-23 06:31N 50°49' W 001°06'0 0.0
2019-Apr-23 06:01N 50°49' W 001°06'0 0.2
2019-Apr-23 05:31N 50°49' W 001°06'4 7.7
2019-Apr-23 05:01N 50°45' W 001°05'714.6
2019-Apr-23 04:30N 50°39' W 000°59'815.8
2019-Apr-23 04:00N 50°32' W 000°53'816.0
2019-Apr-23 03:30N 50°24' W 000°48'714.6
2019-Apr-23 03:00N 50°18' W 000°44'612.1
2019-Apr-23 02:30N 50°12' W 000°40'611.9
2019-Apr-23 02:00N 50°06' W 000°37'611.7
2019-Apr-23 01:30N 50°01' W 000°33'611.2
2019-Apr-23 01:00N 49°56' W 000°31'611.2
2019-Apr-23 00:30N 49°50' W 000°28'611.1
2019-Apr-23 00:00N 49°45' W 000°25'511.0
2019-Apr-22 23:30N 49°40' W 000°21'611.3
2019-Apr-22 23:00N 49°35' W 000°18'510.9
2019-Apr-22 22:30N 49°30' W 000°18'510.7
2019-Apr-22 22:00N 49°25' W 000°15'510.5
2019-Apr-22 21:30N 49°19' W 000°15'2 4.2
2019-Apr-22 21:00N 49°17' W 000°15'0 0.0
2019-Apr-22 20:30N 49°17' W 000°15'0 0.0
2019-Apr-22 20:00N 49°17' W 000°15'0 0.0
2019-Apr-22 19:30N 49°17' W 000°15'3 5.8
2019-Apr-22 19:00N 49°20' W 000°14'1019.7
2019-Apr-22 18:30N 49°30' W 000°19'1020.5
2019-Apr-22 18:00N 49°39' W 000°24'1020.2
2019-Apr-22 17:30N 49°49' W 000°30'1020.4
2019-Apr-22 17:00N 49°58' W 000°35'1020.3
2019-Apr-22 16:30N 50°08' W 000°41'1020.2
2019-Apr-22 16:00N 50°17' W 000°47'1020.9
2019-Apr-22 15:31N 50°27' W 000°53'1020.4
2019-Apr-22 15:00N 50°36' W 000°58'918.0
2019-Apr-22 14:30N 50°44' W 001°05'4 8.8
2019-Apr-22 14:00N 50°49' W 001°06'0 0.2
2019-Apr-22 13:30N 50°49' W 001°06'0 0.0
2019-Apr-22 13:00N 50°49' W 001°06'0 0.2
2019-Apr-22 12:30N 50°49' W 001°06'3 7.0
2019-Apr-22 12:01N 50°45' W 001°05'1019.8
2019-Apr-22 11:30N 50°37' W 000°57'1020.4
2019-Apr-22 11:00N 50°27' W 000°51'1020.5
2019-Apr-22 10:30N 50°18' W 000°45'1020.3
2019-Apr-22 10:00N 50°08' W 000°40'1019.8
2019-Apr-22 09:30N 49°59' W 000°35'1019.6
2019-Apr-22 09:00N 49°49' W 000°31'1019.6
2019-Apr-22 08:30N 49°40' W 000°25'1019.7
2019-Apr-22 08:00N 49°31' W 000°20'1019.9
2019-Apr-22 07:30N 49°22' W 000°15'4 8.6
2019-Apr-22 07:00N 49°17' W 000°15'0 0.0
2019-Apr-22 06:30N 49°17' W 000°15'0 0.0
2019-Apr-22 06:00N 49°17' W 000°15'0 0.0
2019-Apr-22 05:30N 49°17' W 000°15'0 0.0
2019-Apr-22 05:00N 49°17' W 000°15'0 0.2
2019-Apr-22 04:30N 49°17' W 000°15'612.3
2019-Apr-22 04:01N 49°23' W 000°16'714.9
2019-Apr-22 03:30N 49°30' W 000°19'815.2
2019-Apr-22 03:00N 49°38' W 000°23'815.1
2019-Apr-22 02:31N 49°45' W 000°28'815.2
2019-Apr-22 02:01N 49°52' W 000°32'815.3
2019-Apr-22 01:31N 49°59' W 000°37'815.1
2019-Apr-22 01:01N 50°06' W 000°42'815.2
2019-Apr-22 00:31N 50°13' W 000°45'815.2
2019-Apr-22 00:01N 50°20' W 000°48'815.4
2019-Apr-21 23:31N 50°27' W 000°52'815.3
2019-Apr-21 23:01N 50°35' W 000°56'815.2
2019-Apr-21 22:31N 50°42' W 001°01'713.9
2019-Apr-21 22:00N 50°47' W 001°07'1 2.7
2019-Apr-21 21:30N 50°49' W 001°06'0 0.0
2019-Apr-21 21:00N 50°49' W 001°06'0 0.0
2019-Apr-21 20:30N 50°49' W 001°06'1 1.2
2019-Apr-21 20:01N 50°48' W 001°07'612.6
2019-Apr-21 19:30N 50°43' W 001°01'917.3
2019-Apr-21 19:00N 50°35' W 000°57'1019.6
2019-Apr-21 18:30N 50°26' W 000°53'1019.6
2019-Apr-21 18:00N 50°16' W 000°47'1019.7
2019-Apr-21 17:30N 50°07' W 000°42'1020.0
2019-Apr-21 17:00N 49°58' W 000°37'1020.1
2019-Apr-21 16:30N 49°48' W 000°31'1020.2
2019-Apr-21 16:00N 49°39' W 000°26'1020.0
2019-Apr-21 15:30N 49°30' W 000°20'1019.7
2019-Apr-21 15:00N 49°20' W 000°15'3 6.2
2019-Apr-21 14:30N 49°17' W 000°15'0 0.0
2019-Apr-21 14:00N 49°17' W 000°15'0 0.0
2019-Apr-21 13:30N 49°17' W 000°15'0 0.0
2019-Apr-21 13:00N 49°17' W 000°15'3 6.9
2019-Apr-21 12:30N 49°21' W 000°14'917.1
2019-Apr-21 12:00N 49°29' W 000°15'917.2
2019-Apr-21 11:30N 49°37' W 000°21'918.7
2019-Apr-21 11:00N 49°45' W 000°28'1019.8
2019-Apr-21 10:30N 49°54' W 000°34'1019.9
2019-Apr-21 10:00N 50°04' W 000°39'1019.5
2019-Apr-21 09:30N 50°13' W 000°44'1019.5
2019-Apr-21 09:00N 50°22' W 000°50'917.0
2019-Apr-21 08:30N 50°30' W 000°53'1019.3
2019-Apr-21 08:00N 50°39' W 000°57'816.5
2019-Apr-21 07:30N 50°46' W 001°05'3 5.9
2019-Apr-21 07:00N 50°49' W 001°06'0 0.0
2019-Apr-21 06:30N 50°49' W 001°06'0 0.0
2019-Apr-21 06:00N 50°49' W 001°06'0 0.2
2019-Apr-21 05:31N 50°49' W 001°06'510.0
2019-Apr-21 05:00N 50°44' W 001°03'612.6
2019-Apr-21 04:31N 50°39' W 000°58'612.9
2019-Apr-21 04:00N 50°32' W 000°55'611.2
2019-Apr-21 03:30N 50°27' W 000°52'510.7
2019-Apr-21 03:00N 50°22' W 000°49'511.0
2019-Apr-21 02:30N 50°17' W 000°46'611.5
2019-Apr-21 02:00N 50°12' W 000°43'611.7
2019-Apr-21 01:30N 50°06' W 000°39'611.8
2019-Apr-21 01:00N 50°01' W 000°34'611.6
2019-Apr-21 00:30N 49°56' W 000°32'611.5
2019-Apr-21 00:00N 49°50' W 000°29'611.3
2019-Apr-20 23:30N 49°45' W 000°26'611.2
2019-Apr-20 23:00N 49°40' W 000°23'611.3
2019-Apr-20 22:30N 49°34' W 000°21'611.3
2019-Apr-20 22:00N 49°29' W 000°19'611.2
2019-Apr-20 21:30N 49°23' W 000°16'611.2
2019-Apr-20 21:00N 49°18' W 000°15'0 0.9
2019-Apr-20 20:30N 49°17' W 000°15'0 0.0
2019-Apr-20 20:00N 49°17' W 000°15'0 0.0
2019-Apr-20 19:30N 49°17' W 000°15'3 5.7
2019-Apr-20 19:01N 49°20' W 000°14'816.9
2019-Apr-20 18:31N 49°28' W 000°19'816.9
2019-Apr-20 18:01N 49°36' W 000°23'917.0
2019-Apr-20 17:31N 49°44' W 000°28'918.2
2019-Apr-20 17:01N 49°52' W 000°33'918.5
2019-Apr-20 16:31N 50°01' W 000°39'918.4
2019-Apr-20 16:01N 50°10' W 000°44'918.6
2019-Apr-20 15:31N 50°19' W 000°48'1019.7
2019-Apr-20 15:01N 50°28' W 000°53'1020.3
2019-Apr-20 14:31N 50°37' W 000°58'918.7
2019-Apr-20 14:01N 50°46' W 001°05'3 6.0
2019-Apr-20 13:30N 50°49' W 001°06'0 0.0
2019-Apr-20 13:00N 50°49' W 001°06'0 0.0
2019-Apr-20 12:30N 50°49' W 001°06'0 0.2
2019-Apr-20 12:01N 50°49' W 001°06'5 9.8
2019-Apr-20 11:30N 50°44' W 001°03'816.1
2019-Apr-20 11:00N 50°37' W 000°58'917.9
2019-Apr-20 10:30N 50°29' W 000°52'1020.7
2019-Apr-20 10:00N 50°19' W 000°46'918.6
2019-Apr-20 09:30N 50°10' W 000°41'918.3
2019-Apr-20 09:00N 50°02' W 000°37'918.7
2019-Apr-20 08:30N 49°53' W 000°32'1019.6
2019-Apr-20 08:00N 49°44' W 000°27'1019.6
2019-Apr-20 07:30N 49°34' W 000°23'1019.3
2019-Apr-20 07:00N 49°25' W 000°17'815.2
2019-Apr-20 06:31N 49°18' W 000°15'0 0.9
2019-Apr-20 06:00N 49°17' W 000°15'0 0.0
2019-Apr-20 05:30N 49°17' W 000°15'0 0.0
2019-Apr-20 05:01N 49°17' W 000°15'1 1.6
2019-Apr-20 04:31N 49°18' W 000°15'816.1
2019-Apr-20 04:01N 49°26' W 000°17'1020.1
2019-Apr-20 03:31N 49°36' W 000°22'612.2
2019-Apr-20 03:00N 49°41' W 000°25'510.5
2019-Apr-20 02:30N 49°46' W 000°28'510.4
2019-Apr-20 02:00N 49°51' W 000°30'713.7
2019-Apr-20 01:30N 49°57' W 000°35'815.4
2019-Apr-20 01:00N 50°05' W 000°39'815.6
2019-Apr-20 00:30N 50°12' W 000°43'815.6
2019-Apr-20 00:00N 50°20' W 000°46'816.1
2019-Apr-19 23:30N 50°27' W 000°51'816.3
2019-Apr-19 23:00N 50°35' W 000°56'815.9
2019-Apr-19 22:30N 50°42' W 001°01'713.4
2019-Apr-19 22:00N 50°47' W 001°07'1 2.7
2019-Apr-19 21:31N 50°49' W 001°06'0 0.0
2019-Apr-19 21:00N 50°49' W 001°06'0 0.0
2019-Apr-19 20:31N 50°49' W 001°06'0 0.5
2019-Apr-19 20:01N 50°49' W 001°06'510.0
2019-Apr-19 19:30N 50°44' W 001°03'918.0
2019-Apr-19 19:00N 50°37' W 000°54'1019.5
2019-Apr-19 18:30N 50°28' W 000°47'1020.3
2019-Apr-19 18:00N 50°19' W 000°44'1020.5
2019-Apr-19 17:30N 50°09' W 000°41'1020.6
2019-Apr-19 17:00N 49°59' W 000°35'1020.7
2019-Apr-19 16:30N 49°49' W 000°30'1121.1
2019-Apr-19 16:00N 49°39' W 000°24'1020.3
2019-Apr-19 15:30N 49°30' W 000°20'1019.8
2019-Apr-19 15:00N 49°20' W 000°14'3 5.9
2019-Apr-19 14:30N 49°17' W 000°15'0 0.0
2019-Apr-19 14:00N 49°17' W 000°15'0 0.0
2019-Apr-19 13:30N 49°17' W 000°15'0 0.0
2019-Apr-19 13:00N 49°17' W 000°15'4 7.9
2019-Apr-19 12:30N 49°21' W 000°14'917.9
2019-Apr-19 12:00N 49°29' W 000°22'1019.1
2019-Apr-19 11:30N 49°38' W 000°23'1019.6
2019-Apr-19 11:00N 49°48' W 000°28'1019.9
2019-Apr-19 10:30N 49°57' W 000°33'1020.1
2019-Apr-19 10:00N 50°07' W 000°38'1020.0
2019-Apr-19 09:30N 50°16' W 000°43'1019.4
2019-Apr-19 09:00N 50°25' W 000°49'1019.5
2019-Apr-19 08:30N 50°34' W 000°54'918.0
2019-Apr-19 08:00N 50°42' W 000°59'714.8
2019-Apr-19 07:30N 50°48' W 001°07'1 1.7
2019-Apr-19 07:00N 50°49' W 001°06'0 0.0
2019-Apr-19 06:30N 50°49' W 001°06'0 0.0
2019-Apr-19 06:01N 50°49' W 001°06'0 0.2
2019-Apr-19 05:30N 50°49' W 001°06'4 7.8
2019-Apr-19 05:01N 50°45' W 001°05'714.3
2019-Apr-19 04:31N 50°39' W 000°57'815.5
2019-Apr-19 04:01N 50°32' W 000°53'815.5
2019-Apr-19 03:31N 50°25' W 000°47'815.7
2019-Apr-19 03:01N 50°18' W 000°42'815.9
2019-Apr-19 02:31N 50°11' W 000°39'816.1
2019-Apr-19 02:01N 50°03' W 000°36'713.5
2019-Apr-19 01:30N 49°56' W 000°35'612.3
2019-Apr-19 01:00N 49°50' W 000°32'612.3
2019-Apr-19 00:30N 49°44' W 000°29'612.2
2019-Apr-19 00:00N 49°38' W 000°27'612.3
2019-Apr-18 23:30N 49°33' W 000°23'611.5
2019-Apr-18 23:00N 49°27' W 000°21'611.7
2019-Apr-18 22:30N 49°22' W 000°16'510.2
2019-Apr-18 22:00N 49°17' W 000°15'0 0.0
2019-Apr-18 21:30N 49°17' W 000°15'0 0.0
2019-Apr-18 21:00N 49°17' W 000°15'0 0.0
2019-Apr-18 20:30N 49°17' W 000°15'0 0.0
2019-Apr-18 20:00N 49°17' W 000°15'0 0.0
2019-Apr-18 19:30N 49°17' W 000°15'3 5.4
2019-Apr-18 19:00N 49°20' W 000°14'816.8
2019-Apr-18 18:31N 49°28' W 000°19'917.4
2019-Apr-18 18:00N 49°36' W 000°25'917.4
2019-Apr-18 17:31N 49°44' W 000°30'918.6
2019-Apr-18 17:00N 49°52' W 000°36'1019.8
2019-Apr-18 16:30N 50°01' W 000°42'1019.2
2019-Apr-18 16:00N 50°10' W 000°48'1019.4
2019-Apr-18 15:30N 50°20' W 000°52'1019.6
2019-Apr-18 15:00N 50°29' W 000°55'1019.0
2019-Apr-18 14:30N 50°39' W 000°58'917.2
2019-Apr-18 14:00N 50°46' W 001°05'3 6.2
2019-Apr-18 13:30N 50°49' W 001°06'0 0.0
2019-Apr-18 13:00N 50°49' W 001°06'0 0.0
2019-Apr-18 12:30N 50°49' W 001°06'0 0.5
2019-Apr-18 12:01N 50°49' W 001°06'612.3
2019-Apr-18 11:31N 50°43' W 001°03'1019.0
2019-Apr-18 11:01N 50°35' W 000°56'1019.5
2019-Apr-18 10:31N 50°26' W 000°49'1019.2
2019-Apr-18 10:01N 50°17' W 000°44'1019.0
2019-Apr-18 09:30N 50°07' W 000°41'918.7
2019-Apr-18 09:00N 49°58' W 000°38'918.5
2019-Apr-18 08:31N 49°50' W 000°33'918.1
2019-Apr-18 08:01N 49°41' W 000°28'918.6
2019-Apr-18 07:31N 49°33' W 000°23'918.4
2019-Apr-18 07:01N 49°24' W 000°17'714.0
2019-Apr-18 06:30N 49°17' W 000°15'0 0.0
2019-Apr-18 06:00N 49°17' W 000°15'0 0.0
2019-Apr-18 05:30N 49°17' W 000°15'0 0.0
2019-Apr-18 05:00N 49°17' W 000°15'0 0.2
2019-Apr-18 04:30N 49°17' W 000°15'713.5
2019-Apr-18 04:00N 49°24' W 000°16'816.0
2019-Apr-18 03:30N 49°31' W 000°22'816.2
2019-Apr-18 03:00N 49°38' W 000°27'611.9
2019-Apr-18 02:30N 49°44' W 000°31'611.2
2019-Apr-18 02:00N 49°49' W 000°34'510.9
2019-Apr-18 01:30N 49°54' W 000°36'510.7
2019-Apr-18 01:00N 49°60' W 000°39'510.8
2019-Apr-18 00:30N 50°05' W 000°41'612.1
2019-Apr-18 00:00N 50°11' W 000°43'815.1
2019-Apr-17 23:30N 50°18' W 000°46'815.5
2019-Apr-17 23:00N 50°25' W 000°50'815.3
2019-Apr-17 22:30N 50°32' W 000°54'815.6
2019-Apr-17 22:00N 50°40' W 000°59'714.5
2019-Apr-17 21:30N 50°46' W 001°05'3 5.9
2019-Apr-17 21:00N 50°49' W 001°06'0 0.0
2019-Apr-17 20:30N 50°49' W 001°06'0 0.0
2019-Apr-17 20:01N 50°49' W 001°06'0 0.0
2019-Apr-17 19:30N 50°49' W 001°06'0 0.0
2019-Apr-17 19:00N 50°49' W 001°06'0 0.0
2019-Apr-17 18:30N 50°49' W 001°06'0 0.3
2019-Apr-17 18:00N 50°49' W 001°06'5 9.3
2019-Apr-17 17:31N 50°44' W 001°04'714.8
2019-Apr-17 17:00N 50°38' W 000°58'918.6
2019-Apr-17 16:30N 50°29' W 000°56'918.4
2019-Apr-17 16:00N 50°20' W 000°52'918.6
2019-Apr-17 15:30N 50°11' W 000°47'918.9
2019-Apr-17 15:00N 50°02' W 000°42'1019.2
2019-Apr-17 14:30N 49°54' W 000°36'1019.2
2019-Apr-17 14:00N 49°45' W 000°30'919.0
2019-Apr-17 13:30N 49°36' W 000°23'918.7
2019-Apr-17 13:00N 49°27' W 000°19'917.4
2019-Apr-17 12:30N 49°19' W 000°15'2 3.5
2019-Apr-17 12:00N 49°17' W 000°15'0 0.0
2019-Apr-17 11:30N 49°17' W 000°15'0 0.0
2019-Apr-17 11:00N 49°17' W 000°15'0 0.0
2019-Apr-17 10:30N 49°17' W 000°15'0 0.0
2019-Apr-17 10:00N 49°17' W 000°15'0 0.0
2019-Apr-17 09:30N 49°17' W 000°15'0 0.0
2019-Apr-17 09:00N 49°17' W 000°15'0 0.0
2019-Apr-17 08:30N 49°17' W 000°15'0 0.0
2019-Apr-17 08:00N 49°17' W 000°15'0 0.0
2019-Apr-17 07:30N 49°17' W 000°15'0 0.0
2019-Apr-17 07:00N 49°17' W 000°15'0 0.0
2019-Apr-17 06:30N 49°17' W 000°15'0 0.0
2019-Apr-17 06:00N 49°17' W 000°15'0 0.0
2019-Apr-17 05:30N 49°17' W 000°15'0 0.0
2019-Apr-17 05:00N 49°17' W 000°15'3 5.5
2019-Apr-17 04:30N 49°20' W 000°14'611.9
2019-Apr-17 04:00N 49°26' W 000°17'611.2
2019-Apr-17 03:30N 49°31' W 000°20'714.3
2019-Apr-17 03:00N 49°38' W 000°24'816.1
2019-Apr-17 02:30N 49°45' W 000°28'815.9
2019-Apr-17 02:00N 49°53' W 000°32'815.6
2019-Apr-17 01:30N 50°00' W 000°36'815.5
2019-Apr-17 01:00N 50°07' W 000°41'815.6
2019-Apr-17 00:30N 50°15' W 000°45'815.4
2019-Apr-17 00:00N 50°22' W 000°49'815.1
2019-Apr-16 23:30N 50°29' W 000°53'714.7
2019-Apr-16 23:00N 50°36' W 000°57'714.4
2019-Apr-16 22:30N 50°42' W 001°02'612.6
2019-Apr-16 22:00N 50°48' W 001°07'1 2.0
2019-Apr-16 21:30N 50°49' W 001°06'0 0.0
2019-Apr-16 21:00N 50°49' W 001°06'0 0.0
2019-Apr-16 20:30N 50°49' W 001°06'1 1.0
2019-Apr-16 20:00N 50°49' W 001°07'612.0
2019-Apr-16 19:31N 50°43' W 001°02'1019.8
2019-Apr-16 19:00N 50°35' W 000°55'1020.0
2019-Apr-16 18:30N 50°26' W 000°47'1020.6
2019-Apr-16 18:01N 50°16' W 000°42'1020.2
2019-Apr-16 17:31N 50°06' W 000°37'1020.1
2019-Apr-16 17:00N 49°57' W 000°33'1019.9
2019-Apr-16 16:31N 49°47' W 000°28'1019.9
2019-Apr-16 16:01N 49°38' W 000°24'1019.8
2019-Apr-16 15:30N 49°28' W 000°19'917.9
2019-Apr-16 15:00N 49°20' W 000°14'2 5.0
2019-Apr-16 14:30N 49°17' W 000°15'0 0.0
2019-Apr-16 14:00N 49°17' W 000°15'0 0.0
2019-Apr-16 13:30N 49°17' W 000°15'0 0.0
2019-Apr-16 13:00N 49°17' W 000°15'3 5.9
2019-Apr-16 12:30N 49°20' W 000°14'918.2
2019-Apr-16 12:01N 49°29' W 000°17'1019.4
2019-Apr-16 11:31N 49°37' W 000°25'1019.8
2019-Apr-16 11:01N 49°46' W 000°33'1019.7
2019-Apr-16 10:31N 49°55' W 000°39'918.8
2019-Apr-16 10:01N 50°04' W 000°44'918.4
2019-Apr-16 09:30N 50°12' W 000°49'1019.0
2019-Apr-16 09:00N 50°22' W 000°53'1020.2
2019-Apr-16 08:30N 50°32' W 000°55'1019.8
2019-Apr-16 08:01N 50°41' W 001°01'815.6
2019-Apr-16 07:30N 50°48' W 001°07'1 2.3
2019-Apr-16 07:00N 50°49' W 001°06'0 0.0
2019-Apr-16 06:30N 50°49' W 001°06'0 0.0
2019-Apr-16 06:00N 50°49' W 001°06'0 0.8
2019-Apr-16 05:30N 50°49' W 001°06'510.9
2019-Apr-16 05:00N 50°44' W 001°03'713.9
2019-Apr-16 04:30N 50°37' W 000°58'815.6
2019-Apr-16 04:00N 50°30' W 000°54'611.5
2019-Apr-16 03:30N 50°25' W 000°52'611.3
2019-Apr-16 03:00N 50°19' W 000°50'611.4
2019-Apr-16 02:30N 50°13' W 000°48'611.5
2019-Apr-16 02:00N 50°08' W 000°45'611.7
2019-Apr-16 01:30N 50°03' W 000°42'612.1
2019-Apr-16 01:00N 49°57' W 000°37'611.9
2019-Apr-16 00:30N 49°52' W 000°33'611.9
2019-Apr-16 00:00N 49°46' W 000°30'612.0
2019-Apr-15 23:30N 49°41' W 000°26'611.6
2019-Apr-15 23:00N 49°35' W 000°23'611.6
2019-Apr-15 22:30N 49°30' W 000°20'611.9
2019-Apr-15 22:00N 49°24' W 000°17'611.3
2019-Apr-15 21:30N 49°19' W 000°15'2 3.3
2019-Apr-15 21:00N 49°17' W 000°15'0 0.0
2019-Apr-15 20:30N 49°17' W 000°15'0 0.0
2019-Apr-15 20:00N 49°17' W 000°15'0 0.0
2019-Apr-15 19:30N 49°17' W 000°15'3 5.9
2019-Apr-15 19:00N 49°20' W 000°14'918.8
2019-Apr-15 18:30N 49°29' W 000°17'918.7
2019-Apr-15 18:00N 49°38' W 000°23'918.8
2019-Apr-15 17:30N 49°47' W 000°28'919.0
2019-Apr-15 17:00N 49°56' W 000°32'1019.2
2019-Apr-15 16:30N 50°05' W 000°37'1021.0
2019-Apr-15 16:00N 50°15' W 000°44'1020.6
2019-Apr-15 15:30N 50°24' W 000°50'1020.5
2019-Apr-15 15:00N 50°34' W 000°56'918.9
2019-Apr-15 14:30N 50°43' W 000°60'714.1
2019-Apr-15 14:00N 50°48' W 001°07'1 1.4
2019-Apr-15 13:30N 50°49' W 001°06'0 0.0
2019-Apr-15 13:00N 50°49' W 001°06'0 0.0
2019-Apr-15 12:30N 50°49' W 001°06'1 1.5
2019-Apr-15 12:01N 50°48' W 001°07'612.9
2019-Apr-15 11:30N 50°43' W 001°01'917.9
2019-Apr-15 11:00N 50°35' W 000°56'1121.3
2019-Apr-15 10:30N 50°25' W 000°49'  

Dump ship's entire track history